Keith, United Kingdom
Current Conditions -  °F | °C
As of 4:50 AM on Saturday 29 Nov 2014 (Local Time) from EGQS Reporting Station
Overcast Overcast  
Wind Chill: 50°   Ceiling: 1700
Heat Index: 50°   Visibility: 6mi
Dew Point: 46°   Wind: 14mph
Humidity: 87%   Direction: 130°SE
Pressure: 29.88"   Gusts: NA
Location:  57.54°N, 2.95°W
Report Text: EGQS 290450Z 13012KT 9999 OVC017 10/08 Q1012 WHT TEMPO SCT012 GRN
Loading
Personal Weather Stations






























Interactive Weather Map New forecast layout! Learn more

10-Day Weather Forecast

Advertisements
Track Severe Weather on mobile